Time;durP1;ratioP1;P1;durP2;ratioP2;P2;SDS_P1;SDS_P2;PMS_P1;PMS_P2;Temp;Humidity;BMP_temperature;BMP_pressure;BME280_temperature;BME280_humidity;BME280_pressure;Samples;Min_cycle;Max_cycle;Signal;HPM_P1;HPM_P2
2023/08/29 00:00:21;;;;;;;2.00;1.15;;;12.70;99.90;;;;;;5011875;28;20034;-62
2023/08/29 00:02:48;;;;;;;5.15;1.20;;;12.70;99.90;;;;;;5025998;28;20029;-63
2023/08/29 00:05:14;;;;;;;2.53;1.40;;;12.70;99.90;;;;;;5023699;28;20084;-63
2023/08/29 00:07:39;;;;;;;2.58;1.45;;;12.70;99.90;;;;;;5029032;28;20068;-63
2023/08/29 00:10:06;;;;;;;3.10;1.48;;;12.70;99.90;;;;;;5010568;28;20049;-63
2023/08/29 00:12:32;;;;;;;3.40;1.60;;;12.60;99.90;;;;;;5011504;28;20053;-63
2023/08/29 00:14:58;;;;;;;2.38;1.48;;;12.60;99.90;;;;;;5023957;28;20056;-63
2023/08/29 00:17:26;;;;;;;5.93;1.63;;;12.60;99.90;;;;;;5029140;28;20053;-63
2023/08/29 00:19:52;;;;;;;5.80;1.63;;;12.60;99.90;;;;;;5032414;28;20112;-62
2023/08/29 00:22:17;;;;;;;3.65;2.03;;;12.60;99.90;;;;;;5032878;28;20037;-63
2023/08/29 00:24:44;;;;;;;3.65;1.85;;;12.60;99.90;;;;;;5030556;28;20373;-63
2023/08/29 00:27:13;;;;;;;5.85;1.77;;;12.60;99.90;;;;;;5013415;28;20056;-63
2023/08/29 00:29:39;;;;;;;1.92;1.55;;;12.50;99.90;;;;;;5015480;28;20041;-63
2023/08/29 00:32:05;;;;;;;3.95;1.42;;;12.50;99.90;;;;;;5033034;28;20048;-63
2023/08/29 00:34:30;;;;;;;2.00;1.48;;;12.50;99.90;;;;;;5030865;28;20034;-63
2023/08/29 00:36:56;;;;;;;2.00;1.70;;;12.50;99.90;;;;;;5032311;28;20419;-63
2023/08/29 00:39:22;;;;;;;3.83;2.25;;;12.40;99.90;;;;;;5030802;28;20049;-62
2023/08/29 00:41:49;;;;;;;3.88;2.03;;;12.50;99.90;;;;;;5031997;28;20034;-61
2023/08/29 00:44:18;;;;;;;4.53;2.05;;;12.40;99.90;;;;;;5030074;28;20053;-63
2023/08/29 00:46:45;;;;;;;3.45;2.17;;;12.40;99.90;;;;;;5030191;28;20045;-62
2023/08/29 00:49:13;;;;;;;4.22;2.30;;;12.40;99.90;;;;;;5030764;28;20049;-63
2023/08/29 00:51:39;;;;;;;3.42;2.20;;;12.40;99.90;;;;;;5028957;28;20037;-63
2023/08/29 00:54:06;;;;;;;3.85;2.00;;;12.40;99.90;;;;;;5030967;28;20037;-63
2023/08/29 00:56:32;;;;;;;5.32;2.45;;;12.40;99.90;;;;;;5030180;28;20038;-63
2023/08/29 00:58:59;;;;;;;3.67;2.22;;;12.40;99.90;;;;;;5032640;28;20100;-63
2023/08/29 01:01:26;;;;;;;4.82;2.17;;;12.40;99.90;;;;;;5032307;28;20116;-63
2023/08/29 01:03:52;;;;;;;4.60;2.10;;;12.40;99.90;;;;;;5031631;28;20041;-62
2023/08/29 01:06:18;;;;;;;4.07;2.15;;;12.30;99.90;;;;;;5030284;28;20036;-63
2023/08/29 01:08:44;;;;;;;4.60;2.10;;;12.30;99.90;;;;;;5030720;28;20039;-64
2023/08/29 01:11:19;;;;;;;4.18;2.20;;;12.30;99.90;;;;;;5032056;28;20099;-63
2023/08/29 01:14:03;;;;;;;3.83;1.85;;;12.30;99.90;;;;;;5022758;28;20041;-63
2023/08/29 01:16:36;;;;;;;4.25;1.90;;;12.30;99.90;;;;;;5028397;28;20049;-63
2023/08/29 01:19:06;;;;;;;3.42;1.75;;;12.20;99.90;;;;;;5030496;28;20099;-63
2023/08/29 01:21:55;;;;;;;5.00;1.90;;;12.20;99.90;;;;;;5028619;28;20048;-63
2023/08/29 01:24:31;;;;;;;3.35;1.80;;;12.20;99.90;;;;;;5031999;28;20553;-64
2023/08/29 01:26:58;;;;;;;2.65;2.00;;;12.10;99.90;;;;;;5024534;28;20037;-63
2023/08/29 01:29:25;;;;;;;5.20;2.00;;;12.10;99.90;;;;;;5030745;28;20045;-63
2023/08/29 01:31:51;;;;;;;2.85;1.92;;;12.10;99.90;;;;;;5031002;28;20042;-62
2023/08/29 01:34:18;;;;;;;5.43;2.40;;;12.10;99.90;;;;;;5029309;28;20033;-61
2023/08/29 01:36:44;;;;;;;5.88;2.13;;;12.10;99.90;;;;;;5030390;28;20496;-63
2023/08/29 01:39:10;;;;;;;4.07;1.83;;;12.00;99.90;;;;;;5027953;28;20114;-63
2023/08/29 01:41:36;;;;;;;3.38;1.80;;;12.00;99.90;;;;;;5026935;28;20068;-63
2023/08/29 01:44:03;;;;;;;2.33;1.77;;;12.00;99.90;;;;;;5026168;28;20067;-62
2023/08/29 01:46:29;;;;;;;2.97;1.77;;;12.00;99.90;;;;;;5028260;28;20045;-62
2023/08/29 01:48:58;;;;;;;2.92;1.98;;;12.00;99.90;;;;;;5029135;28;20037;-63
2023/08/29 01:51:25;;;;;;;3.10;1.90;;;12.00;99.90;;;;;;5030258;28;20045;-63
2023/08/29 01:53:51;;;;;;;3.55;2.10;;;11.90;99.90;;;;;;5025046;28;20108;-63
2023/08/29 01:56:19;;;;;;;4.53;2.15;;;11.90;99.90;;;;;;5026711;28;20057;-63
2023/08/29 01:58:47;;;;;;;3.90;2.20;;;11.90;99.90;;;;;;5025078;28;20041;-63
2023/08/29 02:01:14;;;;;;;5.82;2.20;;;11.90;99.90;;;;;;5027140;28;20120;-63
2023/08/29 02:03:39;;;;;;;3.08;2.03;;;11.90;99.90;;;;;;5021824;28;20087;-63
2023/08/29 02:06:05;;;;;;;5.78;2.28;;;11.90;99.90;;;;;;5027005;28;20033;-63
2023/08/29 02:08:31;;;;;;;2.20;1.35;;;11.90;99.90;;;;;;5024387;28;20045;-63
2023/08/29 02:10:57;;;;;;;7.72;2.05;;;11.80;99.90;;;;;;5029909;28;20037;-63
2023/08/29 02:13:23;;;;;;;4.38;1.55;;;11.80;99.90;;;;;;5025452;28;20040;-63
2023/08/29 02:15:49;;;;;;;3.40;1.83;;;11.80;99.90;;;;;;5029161;28;20107;-63
2023/08/29 02:18:14;;;;;;;4.40;1.70;;;11.80;99.90;;;;;;5029550;28;20072;-63
2023/08/29 02:20:40;;;;;;;2.97;1.85;;;11.70;99.90;;;;;;5031265;28;20106;-63
2023/08/29 02:23:06;;;;;;;5.82;2.22;;;11.80;99.90;;;;;;5031256;28;20484;-63
2023/08/29 02:25:31;;;;;;;2.63;1.98;;;11.70;99.90;;;;;;5028830;28;20048;-63
2023/08/29 02:27:58;;;;;;;4.15;2.08;;;11.60;99.90;;;;;;5028665;28;20119;-63
2023/08/29 02:30:28;;;;;;;3.35;2.20;;;11.70;99.90;;;;;;5039384;22;20905;-78
2023/08/29 02:33:19;;;;;;;2.88;2.10;;;11.70;99.90;;;;;;4958057;28;20041;-78
2023/08/29 02:35:53;;;;;;;4.68;2.35;;;11.70;99.90;;;;;;4958911;28;20032;-78
2023/08/29 02:38:21;;;;;;;3.03;2.10;;;11.60;99.90;;;;;;4951528;28;20039;-78
2023/08/29 02:40:50;;;;;;;5.55;2.38;;;11.30;99.90;;;;;;4938358;29;20407;-78
2023/08/29 02:43:17;;;;;;;3.83;2.00;;;11.50;99.90;;;;;;4955138;28;20094;-78
2023/08/29 02:45:44;;;;;;;4.50;2.20;;;11.60;99.90;;;;;;4950399;28;20123;-78
2023/08/29 02:48:13;;;;;;;3.67;2.22;;;11.60;99.90;;;;;;4966505;28;20055;-78
2023/08/29 02:50:41;;;;;;;3.25;2.50;;;11.50;99.90;;;;;;4946330;28;20039;-78
2023/08/29 02:53:28;;;;;;;4.97;2.42;;;11.50;99.90;;;;;;4953413;28;20148;-78
2023/08/29 02:56:37;;;;;;;2.80;2.03;;;11.50;99.90;;;;;;4960708;28;20047;-78
2023/08/29 03:03:16;;;;;;;2.53;1.60;;;11.50;99.90;;;;;;4934832;29;20048;-78
2023/08/29 03:05:55;;;;;;;2.38;1.85;;;11.60;99.90;;;;;;4936956;29;20067;-78
2023/08/29 03:08:41;;;;;;;4.80;2.00;;;11.40;99.90;;;;;;4925178;29;20054;-78
2023/08/29 03:11:11;;;;;;;3.33;2.25;;;11.40;99.90;;;;;;4937626;29;20507;-78
2023/08/29 03:13:47;;;;;;;4.07;2.15;;;11.40;99.90;;;;;;4943570;28;20057;-78
2023/08/29 03:16:35;;;;;;;4.93;2.28;;;11.40;99.90;;;;;;4954081;28;20470;-78
2023/08/29 03:19:27;;;;;;;5.80;2.15;;;11.40;99.90;;;;;;4952579;28;20122;-78
2023/08/29 03:21:56;;;;;;;2.55;1.88;;;11.40;99.90;;;;;;4950612;28;20135;-78
2023/08/29 03:24:38;;;;;;;4.43;1.77;;;11.40;99.90;;;;;;4965481;28;20035;-78
2023/08/29 03:27:09;;;;;;;4.07;1.98;;;11.40;99.90;;;;;;4967006;28;20171;-78
2023/08/29 03:29:41;;;;;;;3.75;1.90;;;11.30;99.90;;;;;;4944096;28;20403;-78
2023/08/29 03:32:32;;;;;;;5.55;2.20;;;11.30;99.90;;;;;;4951697;28;20058;-78
2023/08/29 03:35:36;;;;;;;3.58;1.92;;;11.30;99.90;;;;;;4949792;28;20054;-78
2023/08/29 03:38:02;;;;;;;4.93;2.42;;;11.30;99.90;;;;;;4951166;28;20042;-78
2023/08/29 03:41:00;;;;;;;2.53;1.73;;;11.30;99.90;;;;;;4943663;28;20043;-78
2023/08/29 03:43:33;;;;;;;2.28;1.25;;;11.20;99.90;;;;;;4957412;28;20170;-78
2023/08/29 03:46:02;;;;;;;1.50;1.10;;;11.30;99.90;;;;;;4950775;28;20047;-78
2023/08/29 03:48:56;;;;;;;1.10;1.00;;;11.20;99.90;;;;;;4952525;28;20054;-78
2023/08/29 03:51:40;;;;;;;1.70;1.30;;;11.20;99.90;;;;;;4960834;28;20047;-78
2023/08/29 03:54:11;;;;;;;3.35;1.70;;;11.10;99.90;;;;;;4940286;28;20113;-78
2023/08/29 03:56:55;;;;;;;2.35;1.70;;;11.10;99.90;;;;;;4937707;29;20078;-78
2023/08/29 04:02:12;;;;;;;3.70;1.67;;;11.10;99.90;;;;;;5037385;23;20507;-62
2023/08/29 04:04:38;;;;;;;2.35;1.65;;;11.10;99.90;;;;;;5032261;28;20041;-62
2023/08/29 04:07:04;;;;;;;4.43;1.80;;;11.10;99.90;;;;;;5030155;28;20041;-62
2023/08/29 04:09:31;;;;;;;2.75;1.60;;;11.10;99.90;;;;;;5018057;28;20050;-62
2023/08/29 04:11:56;;;;;;;2.97;1.60;;;11.00;99.90;;;;;;5013085;28;20088;-63
2023/08/29 04:14:22;;;;;;;4.35;1.60;;;11.00;99.90;;;;;;5012736;28;20063;-63
2023/08/29 04:16:48;;;;;;;2.55;1.40;;;11.00;99.90;;;;;;5011561;28;20041;-63
2023/08/29 04:19:14;;;;;;;2.22;1.48;;;11.00;99.90;;;;;;5003760;28;20052;-63
2023/08/29 04:21:40;;;;;;;3.40;1.50;;;11.00;99.90;;;;;;5013374;28;20030;-63
2023/08/29 04:24:07;;;;;;;1.77;1.50;;;10.90;99.90;;;;;;5011933;28;20048;-63
2023/08/29 04:26:32;;;;;;;2.15;1.73;;;10.90;99.90;;;;;;5013212;28;20100;-63
2023/08/29 04:28:58;;;;;;;2.30;1.60;;;10.90;99.90;;;;;;5013031;28;20491;-63
2023/08/29 04:31:25;;;;;;;3.40;1.70;;;10.90;99.90;;;;;;5010942;28;20041;-63
2023/08/29 04:33:50;;;;;;;3.40;1.85;;;10.90;99.90;;;;;;5013147;28;20038;-63
2023/08/29 04:36:17;;;;;;;3.38;1.70;;;10.80;99.90;;;;;;5012758;28;20042;-62
2023/08/29 04:38:47;;;;;;;2.28;1.70;;;10.80;99.90;;;;;;5011997;28;20041;-63
2023/08/29 04:41:14;;;;;;;4.47;1.90;;;10.80;99.90;;;;;;5012967;28;20420;-63
2023/08/29 04:43:39;;;;;;;5.40;2.20;;;10.80;99.90;;;;;;5012365;28;20388;-63
2023/08/29 04:46:08;;;;;;;8.02;2.30;;;10.80;99.90;;;;;;5009363;28;20034;-63
2023/08/29 04:48:35;;;;;;;3.17;2.20;;;10.80;99.90;;;;;;5012249;28;20045;-63
2023/08/29 04:51:02;;;;;;;3.53;2.10;;;10.80;99.90;;;;;;5012515;28;20033;-63
2023/08/29 04:53:28;;;;;;;3.22;2.10;;;10.80;99.90;;;;;;5011716;28;20165;-63
2023/08/29 04:56:02;;;;;;;2.95;2.10;;;10.80;99.90;;;;;;5011617;28;20506;-63
2023/08/29 04:58:28;;;;;;;2.95;1.90;;;10.80;99.90;;;;;;5011382;28;20030;-63
2023/08/29 05:00:55;;;;;;;4.13;1.73;;;10.70;99.90;;;;;;5009225;28;20046;-63
2023/08/29 05:03:21;;;;;;;2.78;2.10;;;10.70;99.90;;;;;;5008519;28;20050;-63
2023/08/29 05:05:47;;;;;;;2.85;2.03;;;10.70;99.90;;;;;;5004214;28;20062;-63
2023/08/29 05:08:13;;;;;;;3.10;2.33;;;10.70;99.90;;;;;;5010248;28;20041;-63
2023/08/29 05:10:40;;;;;;;3.15;2.17;;;10.70;99.90;;;;;;5009309;28;20137;-63
2023/08/29 05:13:05;;;;;;;3.75;2.20;;;10.70;99.90;;;;;;5012239;28;20488;-63
2023/08/29 05:15:32;;;;;;;3.72;2.53;;;10.70;99.90;;;;;;5005793;28;20095;-63
2023/08/29 05:17:58;;;;;;;3.47;2.40;;;10.70;99.90;;;;;;5004419;28;20405;-63
2023/08/29 05:20:24;;;;;;;2.50;2.00;;;10.70;99.90;;;;;;5008312;28;20046;-63
2023/08/29 05:22:49;;;;;;;4.40;2.15;;;10.70;99.90;;;;;;5011478;28;20048;-63
2023/08/29 05:25:15;;;;;;;3.65;2.28;;;10.70;99.90;;;;;;5011923;28;20046;-63
2023/08/29 05:27:41;;;;;;;4.13;2.30;;;10.70;99.90;;;;;;5011436;28;20044;-63
2023/08/29 05:30:07;;;;;;;3.28;1.92;;;10.70;99.90;;;;;;5012007;28;20041;-63
2023/08/29 05:32:33;;;;;;;3.17;2.30;;;10.70;99.90;;;;;;5010663;28;20042;-63
2023/08/29 05:34:59;;;;;;;6.35;1.90;;;10.80;99.90;;;;;;5007990;28;20041;-63
2023/08/29 05:37:25;;;;;;;2.83;1.67;;;10.80;99.90;;;;;;5003373;28;20146;-63
2023/08/29 05:39:51;;;;;;;2.42;2.00;;;10.80;99.90;;;;;;5012174;28;20042;-63
2023/08/29 05:42:17;;;;;;;4.70;1.90;;;10.80;99.90;;;;;;5009131;28;20052;-63
2023/08/29 05:44:43;;;;;;;2.92;1.70;;;10.80;99.90;;;;;;5009197;28;20034;-63
2023/08/29 05:47:09;;;;;;;2.20;1.80;;;10.90;99.90;;;;;;5006850;28;20045;-63
2023/08/29 05:49:35;;;;;;;2.80;1.67;;;10.90;99.90;;;;;;5006454;28;20048;-62
2023/08/29 05:52:01;;;;;;;2.40;1.70;;;10.90;99.90;;;;;;5007934;28;20034;-62
2023/08/29 05:54:27;;;;;;;3.33;1.80;;;10.90;99.90;;;;;;5003044;28;20511;-63
2023/08/29 05:56:52;;;;;;;2.90;2.03;;;10.90;99.90;;;;;;5009058;28;20045;-61
2023/08/29 05:59:18;;;;;;;3.03;2.00;;;11.00;99.90;;;;;;5006861;28;20103;-63
2023/08/29 06:01:44;;;;;;;2.30;1.70;;;11.00;99.90;;;;;;5004095;28;20065;-64
2023/08/29 06:04:09;;;;;;;2.38;1.73;;;11.00;99.90;;;;;;5002521;28;20085;-64
2023/08/29 06:06:38;;;;;;;2.70;1.98;;;11.00;99.90;;;;;;5009377;28;20041;-63
2023/08/29 06:09:04;;;;;;;2.75;2.00;;;11.00;99.90;;;;;;5006980;28;20034;-64
2023/08/29 06:11:30;;;;;;;3.10;2.22;;;11.00;99.90;;;;;;5009773;28;20400;-64
2023/08/29 06:13:55;;;;;;;5.28;2.28;;;11.00;99.90;;;;;;5004640;28;20069;-64
2023/08/29 06:16:21;;;;;;;5.35;2.35;;;11.00;99.90;;;;;;5010216;28;20053;-65
2023/08/29 06:18:47;;;;;;;4.22;2.22;;;11.00;99.90;;;;;;5007751;28;20319;-64
2023/08/29 06:21:13;;;;;;;3.75;2.70;;;11.10;99.90;;;;;;5007792;28;20049;-64
2023/08/29 06:23:38;;;;;;;2.88;2.10;;;11.00;99.90;;;;;;5007696;28;20068;-64
2023/08/29 06:26:04;;;;;;;3.50;2.13;;;11.10;99.90;;;;;;5007488;28;20044;-64
2023/08/29 06:28:31;;;;;;;3.25;2.20;;;11.10;99.90;;;;;;5004605;28;20128;-64
2023/08/29 06:31:02;;;;;;;4.22;2.30;;;11.20;99.90;;;;;;5010376;28;20133;-64
2023/08/29 06:33:28;;;;;;;3.53;2.50;;;11.20;99.90;;;;;;5006674;28;20042;-64
2023/08/29 06:35:53;;;;;;;5.32;2.50;;;11.20;99.90;;;;;;5010298;28;20453;-62
2023/08/29 06:38:19;;;;;;;5.05;3.50;;;11.30;99.90;;;;;;5009947;28;20133;-64
2023/08/29 06:40:45;;;;;;;6.18;4.15;;;11.30;99.90;;;;;;5005082;28;20114;-64
2023/08/29 06:43:11;;;;;;;7.65;4.32;;;11.30;99.90;;;;;;5005614;28;20034;-64
2023/08/29 06:45:36;;;;;;;6.05;3.97;;;11.40;99.90;;;;;;4998621;28;20034;-64
2023/08/29 06:48:02;;;;;;;6.25;4.13;;;11.50;99.90;;;;;;5009631;28;20084;-63
2023/08/29 06:50:28;;;;;;;6.50;3.95;;;11.50;99.90;;;;;;5005743;28;20101;-64
2023/08/29 06:52:56;;;;;;;6.70;3.63;;;11.60;99.90;;;;;;5009302;28;20036;-64
2023/08/29 06:55:23;;;;;;;4.72;3.40;;;11.60;99.90;;;;;;5010465;28;20076;-64
2023/08/29 06:57:49;;;;;;;7.43;4.15;;;11.70;99.90;;;;;;5010273;28;20038;-64
2023/08/29 07:00:16;;;;;;;5.78;4.30;;;11.80;99.90;;;;;;5006490;28;20563;-63
2023/08/29 07:02:42;;;;;;;7.68;4.40;;;11.90;99.90;;;;;;5009531;28;20037;-64
2023/08/29 07:05:08;;;;;;;8.07;5.40;;;11.90;99.90;;;;;;5010480;28;20534;-64
2023/08/29 07:07:36;;;;;;;7.85;4.75;;;12.00;99.90;;;;;;5010214;28;20501;-64
2023/08/29 07:10:02;;;;;;;6.20;4.55;;;12.10;99.90;;;;;;5002667;28;20041;-64
2023/08/29 07:12:28;;;;;;;7.30;4.68;;;12.20;99.90;;;;;;5004081;28;20068;-64
2023/08/29 07:14:56;;;;;;;8.38;5.35;;;12.30;99.90;;;;;;5009617;28;20492;-64
2023/08/29 07:17:22;;;;;;;8.52;5.10;;;12.40;99.90;;;;;;5008855;28;20063;-64
2023/08/29 07:19:47;;;;;;;8.68;5.40;;;12.50;99.90;;;;;;5004574;28;20045;-64
2023/08/29 07:22:13;;;;;;;8.85;5.32;;;12.60;99.90;;;;;;5008300;28;20320;-62
2023/08/29 07:24:39;;;;;;;8.57;5.43;;;12.70;99.90;;;;;;5009665;28;20033;-64
2023/08/29 07:27:06;;;;;;;6.88;4.90;;;12.80;99.90;;;;;;5009364;28;20042;-64
2023/08/29 07:29:32;;;;;;;8.90;5.63;;;13.00;99.90;;;;;;5008365;28;20057;-63
2023/08/29 07:31:58;;;;;;;11.73;6.75;;;13.10;99.90;;;;;;5009135;28;20049;-64
2023/08/29 07:34:24;;;;;;;11.70;6.25;;;13.20;99.90;;;;;;5000745;28;20240;-64
2023/08/29 07:36:49;;;;;;;11.20;5.80;;;13.40;99.90;;;;;;5009812;28;20041;-62
2023/08/29 07:39:18;;;;;;;16.65;6.53;;;13.50;99.90;;;;;;5009561;28;20133;-64
2023/08/29 07:41:45;;;;;;;18.00;7.05;;;13.60;99.90;;;;;;5008270;28;20489;-64
2023/08/29 07:44:10;;;;;;;12.70;5.95;;;13.70;99.90;;;;;;5002615;28;20044;-64
2023/08/29 07:46:36;;;;;;;12.73;5.82;;;13.70;99.90;;;;;;5006757;28;20109;-64
2023/08/29 07:49:02;;;;;;;14.93;6.10;;;13.80;99.90;;;;;;5009557;28;20499;-64
2023/08/29 07:51:28;;;;;;;14.90;6.60;;;14.00;99.90;;;;;;5007269;28;20399;-63
2023/08/29 07:53:53;;;;;;;11.10;5.97;;;14.10;99.90;;;;;;5007700;28;20117;-64
2023/08/29 07:56:19;;;;;;;12.77;6.07;;;14.20;99.90;;;;;;5010579;28;20049;-65
2023/08/29 07:58:45;;;;;;;10.70;4.95;;;14.30;99.90;;;;;;5008468;28;20125;-64
2023/08/29 08:01:11;;;;;;;9.30;5.10;;;14.40;99.90;;;;;;5006038;28;20124;-63
2023/08/29 08:03:38;;;;;;;10.52;4.63;;;14.50;99.90;;;;;;5008836;28;20042;-64
2023/08/29 08:06:03;;;;;;;9.43;4.50;;;14.50;99.90;;;;;;5009963;28;20034;-62
2023/08/29 08:08:29;;;;;;;5.57;3.45;;;14.70;99.90;;;;;;5005693;28;20026;-64
2023/08/29 08:10:55;;;;;;;10.05;4.07;;;14.70;99.90;;;;;;5007912;28;20133;-64
2023/08/29 08:13:21;;;;;;;10.30;3.95;;;14.80;99.90;;;;;;5005459;28;20042;-64
2023/08/29 08:15:47;;;;;;;9.25;4.35;;;14.90;99.90;;;;;;4999054;28;20072;-64
2023/08/29 08:18:12;;;;;;;7.28;4.38;;;14.90;99.90;;;;;;5008694;28;20500;-66
2023/08/29 08:20:38;;;;;;;8.88;3.97;;;15.00;99.90;;;;;;5006613;28;20097;-65
2023/08/29 08:23:04;;;;;;;6.82;4.10;;;15.10;99.90;;;;;;5005098;28;20373;-65
2023/08/29 08:25:29;;;;;;;9.68;4.55;;;15.20;99.90;;;;;;5006062;28;20369;-65
2023/08/29 08:27:56;;;;;;;8.63;3.63;;;15.30;99.90;;;;;;5018935;28;20046;-64
2023/08/29 08:30:22;;;;;;;7.28;4.00;;;15.30;99.90;;;;;;5005147;28;20054;-63
2023/08/29 08:32:47;;;;;;;11.48;4.22;;;15.30;99.90;;;;;;5006876;28;20085;-64
2023/08/29 08:35:13;;;;;;;5.93;3.17;;;15.40;99.90;;;;;;5002419;28;20400;-63
2023/08/29 08:37:38;;;;;;;5.88;3.15;;;15.40;99.90;;;;;;4998394;28;20034;-63
2023/08/29 08:40:11;;;;;;;6.30;3.15;;;15.50;99.90;;;;;;5004594;28;20088;-68
2023/08/29 08:42:39;;;;;;;7.95;3.17;;;15.50;99.90;;;;;;5002651;28;20046;-66
2023/08/29 08:45:05;;;;;;;5.70;3.80;;;15.60;99.90;;;;;;5005044;28;20282;-63
2023/08/29 08:47:33;;;;;;;5.30;3.30;;;15.60;99.90;;;;;;5003290;28;21246;-63
2023/08/29 08:49:59;;;;;;;7.32;3.75;;;15.70;99.90;;;;;;5001305;28;20052;-63
2023/08/29 08:52:25;;;;;;;5.95;3.33;;;15.70;99.90;;;;;;4998742;28;20038;-67
2023/08/29 08:54:50;;;;;;;6.95;3.72;;;15.80;99.90;;;;;;4999838;28;20232;-65
2023/08/29 08:57:16;;;;;;;6.43;3.35;;;15.90;99.90;;;;;;5001156;28;20503;-64
2023/08/29 08:59:42;;;;;;;7.15;3.58;;;16.00;99.90;;;;;;4999042;28;20511;-64
2023/08/29 09:02:14;;;;;;;8.15;3.42;;;16.10;99.90;;;;;;5009779;28;20283;-63
2023/08/29 09:04:39;;;;;;;;;;;16.10;99.90;;;;;;5009298;28;20041;-63
2023/08/29 09:07:05;;;;;;;5.75;3.13;;;16.20;99.90;;;;;;5010316;28;20367;-63
2023/08/29 09:09:31;;;;;;;6.15;3.35;;;16.30;99.90;;;;;;5010293;28;20041;-63
2023/08/29 09:11:57;;;;;;;5.05;2.70;;;16.30;99.90;;;;;;5011722;28;20041;-66
2023/08/29 09:14:24;;;;;;;5.53;2.88;;;16.40;99.90;;;;;;5010036;28;20096;-65
2023/08/29 09:16:57;;;;;;;5.07;3.13;;;16.50;99.90;;;;;;5008913;28;20049;-68
2023/08/29 09:19:24;;;;;;;7.40;3.33;;;16.60;99.90;;;;;;5011601;28;20038;-66
2023/08/29 09:21:51;;;;;;;6.13;3.35;;;16.80;99.90;;;;;;5010788;28;20068;-63
2023/08/29 09:24:42;;;;;;;7.05;2.85;;;16.90;99.90;;;;;;5005530;28;20038;-63
2023/08/29 09:27:09;;;;;;;4.97;2.80;;;17.10;99.90;;;;;;5005356;28;20411;-63
2023/08/29 09:29:35;;;;;;;4.80;3.10;;;17.30;99.90;;;;;;5011496;28;20088;-64
2023/08/29 09:32:21;;;;;;;;;;;17.50;99.90;;;;;;5003134;28;20074;-65
2023/08/29 09:34:47;;;;;;;7.80;2.63;;;17.70;99.90;;;;;;5006024;28;19917;-65
2023/08/29 09:37:13;;;;;;;3.70;2.47;;;18.00;99.90;;;;;;5004842;28;20038;-67
2023/08/29 09:39:38;;;;;;;7.03;2.53;;;18.20;99.90;;;;;;5006472;28;20558;-63
2023/08/29 09:42:08;;;;;;;4.60;2.50;;;18.30;99.90;;;;;;5003357;28;20453;-64
2023/08/29 09:44:36;;;;;;;3.33;2.40;;;18.40;99.90;;;;;;5005683;28;20157;-64
2023/08/29 09:47:03;;;;;;;4.90;2.15;;;18.60;99.90;;;;;;5005334;28;20073;-63
2023/08/29 09:49:42;;;;;;;4.78;2.40;;;18.70;99.90;;;;;;5011190;28;20124;-64
2023/08/29 09:52:09;;;;;;;4.22;2.38;;;18.80;99.90;;;;;;5005454;28;20057;-64
2023/08/29 09:54:38;;;;;;;3.58;2.10;;;18.90;99.90;;;;;;5007886;28;20038;-63
2023/08/29 09:57:07;;;;;;;6.53;2.28;;;18.80;99.90;;;;;;5005393;28;20054;-66
2023/08/29 09:59:38;;;;;;;4.93;2.58;;;18.60;99.90;;;;;;5010203;28;20048;-64
2023/08/29 10:02:04;;;;;;;4.47;2.58;;;18.40;99.90;;;;;;5009780;28;20302;-64
2023/08/29 10:04:34;;;;;;;4.20;2.50;;;18.20;99.90;;;;;;5011015;28;20053;-64
2023/08/29 10:07:01;;;;;;;3.92;2.40;;;17.90;99.90;;;;;;5007649;28;20041;-64
2023/08/29 10:09:28;;;;;;;4.65;2.65;;;17.70;99.90;;;;;;5007687;28;20046;-63
2023/08/29 10:11:55;;;;;;;6.05;2.70;;;17.60;99.90;;;;;;5004728;28;20080;-63
2023/08/29 10:14:22;;;;;;;4.13;2.72;;;17.40;99.90;;;;;;5004202;28;20041;-63
2023/08/29 10:16:49;;;;;;;4.50;2.78;;;17.30;99.90;;;;;;5003118;28;20304;-63
2023/08/29 10:19:15;;;;;;;5.97;3.25;;;17.20;99.90;;;;;;5006925;28;20072;-63
2023/08/29 10:21:46;;;;;;;5.85;2.90;;;17.20;99.90;;;;;;5004246;28;20118;-63
2023/08/29 10:24:12;;;;;;;4.70;2.63;;;17.10;99.90;;;;;;5000818;28;20042;-63
2023/08/29 10:26:38;;;;;;;6.93;3.25;;;17.00;99.90;;;;;;5006217;28;20370;-63
2023/08/29 10:29:05;;;;;;;7.00;3.40;;;17.00;99.90;;;;;;5007034;28;20038;-63
2023/08/29 10:31:34;;;;;;;4.43;3.03;;;17.00;99.90;;;;;;5007711;28;20100;-63
2023/08/29 10:34:04;;;;;;;4.25;3.10;;;17.00;99.90;;;;;;5007285;28;20428;-63
2023/08/29 10:36:30;;;;;;;4.05;2.67;;;16.90;99.90;;;;;;5006353;28;20042;-63
2023/08/29 10:38:59;;;;;;;5.63;2.90;;;16.90;99.90;;;;;;5005815;28;20400;-63
2023/08/29 10:41:25;;;;;;;4.00;2.55;;;16.90;99.90;;;;;;5006559;28;20437;-63
2023/08/29 10:44:29;;;;;;;3.92;2.20;;;16.90;99.90;;;;;;5007524;28;20038;-63
2023/08/29 10:47:19;;;;;;;5.50;2.17;;;16.90;99.90;;;;;;4999890;28;20034;-62
2023/08/29 10:49:45;;;;;;;4.82;2.05;;;16.90;99.90;;;;;;5002336;28;20050;-62
2023/08/29 10:52:13;;;;;;;5.13;1.90;;;16.90;99.90;;;;;;5005571;28;20041;-68
2023/08/29 10:54:40;;;;;;;4.55;2.05;;;16.90;99.90;;;;;;5006690;28;20117;-63
2023/08/29 10:57:28;;;;;;;2.85;1.80;;;16.90;99.90;;;;;;5002861;28;20097;-63
2023/08/29 10:59:54;;;;;;;3.42;1.83;;;16.90;99.90;;;;;;5002914;28;20042;-65
2023/08/29 11:02:27;;;;;;;4.68;2.05;;;16.90;99.90;;;;;;5004213;28;20046;-62
2023/08/29 11:05:04;;;;;;;4.22;1.98;;;17.00;99.90;;;;;;5005868;28;20038;-64
2023/08/29 11:07:32;;;;;;;3.83;2.00;;;17.00;99.90;;;;;;5006983;28;20044;-64
2023/08/29 11:10:20;;;;;;;3.78;2.10;;;17.00;99.90;;;;;;5005461;28;20424;-64
2023/08/29 11:13:15;;;;;;;3.85;2.00;;;17.10;99.90;;;;;;5004567;28;20037;-64
2023/08/29 11:15:50;;;;;;;4.53;2.38;;;17.20;99.90;;;;;;5003044;28;20145;-64
2023/08/29 11:18:30;;;;;;;4.05;2.20;;;17.30;99.90;;;;;;5004124;28;20069;-64
2023/08/29 11:20:57;;;;;;;4.07;2.55;;;17.40;99.90;;;;;;5005126;28;20400;-65
2023/08/29 11:23:23;;;;;;;3.90;2.50;;;17.50;99.90;;;;;;5002318;28;20053;-63
2023/08/29 11:25:52;;;;;;;4.88;2.60;;;17.60;99.90;;;;;;5005493;28;20030;-64
2023/08/29 11:28:18;;;;;;;5.13;2.50;;;17.80;99.90;;;;;;5004340;28;20513;-64
2023/08/29 11:30:47;;;;;;;3.83;2.95;;;18.00;99.90;;;;;;4999353;28;20074;-64
2023/08/29 11:33:14;;;;;;;4.15;2.42;;;18.30;99.90;;;;;;4995567;28;20613;-62
2023/08/29 11:35:40;;;;;;;6.35;3.25;;;18.70;99.90;;;;;;5001690;28;20034;-64
2023/08/29 11:38:06;;;;;;;;;;;19.10;99.90;;;;;;5003821;28;20045;-63
2023/08/29 11:40:32;;;;;;;7.35;2.90;;;19.60;99.90;;;;;;5005474;28;19918;-65
2023/08/29 11:42:58;;;;;;;4.10;2.40;;;20.00;99.90;;;;;;5005580;28;20044;-62
2023/08/29 11:45:26;;;;;;;;;;;20.40;99.90;;;;;;5003464;28;20458;-62
2023/08/29 11:47:51;;;;;;;4.27;2.60;;;20.60;99.90;;;;;;5002610;28;19918;-66
2023/08/29 11:50:17;;;;;;;5.25;3.08;;;20.70;99.90;;;;;;5003183;28;20041;-65
2023/08/29 11:52:43;;;;;;;5.13;2.70;;;20.90;99.90;;;;;;5005128;28;20095;-62
2023/08/29 11:55:11;;;;;;;6.85;2.88;;;21.10;99.90;;;;;;5006902;28;20120;-62
2023/08/29 11:57:38;;;;;;;4.28;2.60;;;21.30;99.90;;;;;;5006134;28;20038;-67
2023/08/29 12:00:08;;;;;;;3.75;3.08;;;21.40;99.90;;;;;;5001479;28;20497;-65
2023/08/29 12:02:33;;;;;;;6.15;4.63;;;21.50;99.90;;;;;;5006473;28;20456;-64
2023/08/29 12:04:59;;;;;;;7.60;5.97;;;21.60;99.90;;;;;;5005856;28;20034;-64
2023/08/29 12:07:32;;;;;;;6.18;3.88;;;21.70;99.90;;;;;;5006456;28;20046;-63
2023/08/29 12:10:05;;;;;;;;;;;21.80;99.90;;;;;;5002711;28;20091;-63
2023/08/29 12:12:37;;;;;;;8.13;5.80;;;22.00;99.90;;;;;;5003743;28;20376;-65
2023/08/29 12:15:10;;;;;;;4.38;2.75;;;22.10;99.90;;;;;;5009826;28;20037;-66
2023/08/29 12:17:38;;;;;;;4.60;3.28;;;22.20;99.90;;;;;;5002517;28;20846;-64
2023/08/29 12:20:24;;;;;;;4.70;2.53;;;22.20;99.90;;;;;;5008012;28;20034;-64
2023/08/29 12:22:52;;;;;;;5.68;3.13;;;22.20;99.90;;;;;;5011419;28;20030;-63
2023/08/29 12:25:18;;;;;;;;;;;22.30;99.90;;;;;;5001084;28;20538;-66
2023/08/29 12:27:45;;;;;;;2.28;1.80;;;22.40;99.90;;;;;;5009555;28;20394;-65
2023/08/29 12:30:14;;;;;;;4.75;2.63;;;22.40;99.90;;;;;;5009505;28;20049;-63
2023/08/29 12:32:43;;;;;;;4.00;2.47;;;22.40;99.90;;;;;;5001603;28;20519;-65
2023/08/29 12:35:10;;;;;;;2.60;2.40;;;22.20;99.90;;;;;;5009282;28;20096;-65
2023/08/29 12:37:36;;;;;;;4.03;2.33;;;21.90;99.90;;;;;;5008664;28;20053;-65
2023/08/29 12:40:08;;;;;;;2.72;2.30;;;21.70;99.90;;;;;;5003882;28;20050;-64
2023/08/29 12:42:35;;;;;;;7.55;6.38;;;21.40;99.90;;;;;;5008139;28;20482;-62
2023/08/29 12:45:00;;;;;;;6.43;4.70;;;21.10;99.90;;;;;;5010298;28;20105;-66
2023/08/29 12:47:26;;;;;;;17.42;15.57;;;20.90;99.90;;;;;;5009141;28;20176;-65
2023/08/29 12:49:51;;;;;;;6.18;5.50;;;20.80;99.90;;;;;;5008885;28;20042;-63
2023/08/29 12:52:19;;;;;;;6.72;4.32;;;20.80;99.90;;;;;;5003730;28;20100;-65
2023/08/29 12:54:45;;;;;;;3.90;2.85;;;20.70;99.90;;;;;;5010860;28;20037;-66
2023/08/29 12:57:10;;;;;;;3.80;2.80;;;20.50;99.90;;;;;;5005926;28;20042;-65
2023/08/29 12:59:36;;;;;;;3.75;2.80;;;20.30;99.90;;;;;;5011011;28;20034;-66
2023/08/29 13:02:02;;;;;;;4.15;2.80;;;20.10;99.90;;;;;;5009916;28;20103;-65